Time;durP1;ratioP1;P1;durP2;ratioP2;P2;SDS_P1;SDS_P2;PMS_P1;PMS_P2;Temp;Humidity;BMP_temperature;BMP_pressure;BME280_temperature;BME280_humidity;BME280_pressure;Samples;Min_cycle;Max_cycle;Signal;HPM_P1;HPM_P2
2021/04/04 00:00:05;;;;;;;;;;;;;;;20.15;25.92;100705.22;4413997;32;19968;-57
2021/04/04 00:02:31;;;;;;;;;;;;;;;20.20;25.83;100700.91;4415522;32;19958;-57
2021/04/04 00:04:57;;;;;;;;;;;;;;;20.06;26.04;100700.66;4415390;32;20073;-56
2021/04/04 00:07:23;;;;;;;;;;;;;;;20.09;26.05;100694.53;4414334;32;20037;-56
2021/04/04 00:09:48;;;;;;;;;;;;;;;20.14;25.98;100692.84;4413954;32;20005;-57
2021/04/04 00:12:14;;;;;;;;;;;;;;;20.12;25.99;100697.22;4414104;32;20012;-53
2021/04/04 00:14:40;;;;;;;;;;;;;;;20.03;26.10;100684.75;4415368;32;20486;-58
2021/04/04 00:17:06;;;;;;;;;;;;;;;20.04;26.11;100686.53;4413765;32;19954;-54
2021/04/04 00:19:32;;;;;;;;;;;;;;;20.04;26.14;100685.63;4415091;32;19961;-58
2021/04/04 00:21:58;;;;;;;;;;;;;;;20.02;26.11;100674.13;4415208;32;20302;-58
2021/04/04 00:24:24;;;;;;;;;;;;;;;20.01;26.14;100680.28;4415292;32;20660;-57
2021/04/04 00:26:50;;;;;;;;;;;;;;;20.05;26.11;100682.09;4414032;32;20287;-57
2021/04/04 00:29:16;;;;;;;;;;;;;;;19.98;26.22;100675.81;4414348;32;19964;-57
2021/04/04 00:31:41;;;;;;;;;;;;;;;19.98;26.23;100669.66;4412683;32;19995;-57
2021/04/04 00:34:07;;;;;;;;;;;;;;;19.99;26.21;100676.72;4414918;32;20584;-56
2021/04/04 00:36:34;;;;;;;;;;;;;;;19.98;26.18;100675.81;4414077;32;19958;-54
2021/04/04 00:38:59;;;;;;;;;;;;;;;19.98;26.22;100680.22;4414194;32;19981;-56
2021/04/04 00:41:25;;;;;;;;;;;;;;;19.94;26.27;100674.91;4413924;32;19958;-57
2021/04/04 00:43:51;;;;;;;;;;;;;;;19.95;26.28;100675.75;4414545;32;20886;-56
2021/04/04 00:46:17;;;;;;;;;;;;;;;19.93;26.28;100681.00;4414359;32;19954;-57
2021/04/04 00:48:43;;;;;;;;;;;;;;;19.98;26.26;100680.22;4414486;32;19954;-57
2021/04/04 00:51:09;;;;;;;;;;;;;;;19.92;26.31;100676.59;4414882;32;20030;-57
2021/04/04 00:53:35;;;;;;;;;;;;;;;19.93;26.30;100667.78;4414453;32;20298;-56
2021/04/04 00:56:01;;;;;;;;;;;;;;;19.88;26.34;100668.53;4411202;32;19953;-55
2021/04/04 00:58:27;;;;;;;;;;;;;;;19.79;26.45;100669.25;4413794;32;19958;-57
2021/04/04 01:00:53;;;;;;;;;;;;;;;19.91;26.33;100672.13;4413240;32;19945;-56
2021/04/04 01:03:19;;;;;;;;;;;;;;;19.84;26.37;100662.31;4414786;32;20448;-57
2021/04/04 01:05:48;;;;;;;;;;;;;;;19.87;26.37;100672.94;4415141;32;19993;-54
2021/04/04 01:08:14;;;;;;;;;;;;;;;19.85;26.43;100672.03;4414133;32;20700;-56
2021/04/04 01:10:40;;;;;;;;;;;;;;;19.83;26.44;100676.41;4414496;32;19981;-57
2021/04/04 01:13:06;;;;;;;;;;;;;;;19.80;26.48;100677.22;4414923;32;19985;-56
2021/04/04 01:15:32;;;;;;;;;;;;;;;19.89;26.37;100676.50;4413035;32;20013;-54
2021/04/04 01:17:58;;;;;;;;;;;;;;;19.88;26.36;100671.19;4414828;32;20354;-55
2021/04/04 01:23:09;;;;;;;;;;;;;;;19.87;26.38;100672.94;4416485;32;20050;-53
2021/04/04 01:25:35;;;;;;;;;;;;;;;19.76;26.44;100667.47;4417136;32;20658;-57
2021/04/04 01:28:01;;;;;;;;;;;;;;;19.83;26.45;100671.13;4417634;32;19974;-54
2021/04/04 01:30:26;;;;;;;;;;;;;;;19.83;26.43;100673.75;4413228;32;20372;-56
2021/04/04 01:32:52;;;;;;;;;;;;;;;19.81;26.45;100672.81;4417378;32;19954;-55
2021/04/04 01:35:18;;;;;;;;;;;;;;;19.79;26.48;100675.44;4417035;32;19954;-55
2021/04/04 01:37:44;;;;;;;;;;;;;;;19.77;26.50;100670.97;4417106;32;20024;-57
2021/04/04 01:40:10;;;;;;;;;;;;;;;19.76;26.54;100671.84;4416466;32;19968;-56
2021/04/04 01:42:36;;;;;;;;;;;;;;;19.77;26.51;100676.28;4416607;32;20062;-56
2021/04/04 01:45:02;;;;;;;;;;;;;;;19.80;26.47;100665.75;4416881;32;19958;-57
2021/04/04 01:47:28;;;;;;;;;;;;;;;19.79;26.46;100663.97;4416258;32;20296;-57
2021/04/04 01:49:54;;;;;;;;;;;;;;;19.84;26.36;100670.25;4416605;32;19966;-56
2021/04/04 01:52:20;;;;;;;;;;;;;;;19.78;26.51;100678.03;4417514;32;19950;-56
2021/04/04 01:54:46;;;;;;;;;;;;;;;19.77;26.50;100673.63;4416283;32;20351;-57
2021/04/04 01:57:11;;;;;;;;;;;;;;;19.80;26.43;100673.69;4416183;32;19947;-57
2021/04/04 01:59:37;;;;;;;;;;;;;;;19.74;26.53;100666.53;4417392;32;19958;-56
2021/04/04 02:02:03;;;;;;;;;;;;;;;19.76;26.46;100669.22;4408149;32;19962;-55
2021/04/04 02:04:29;;;;;;;;;;;;;;;19.80;26.41;100666.66;4416091;32;20290;-57
2021/04/04 02:06:55;;;;;;;;;;;;;;;19.77;26.49;100671.88;4416761;32;20001;-54
2021/04/04 02:09:21;;;;;;;;;;;;;;;19.74;26.53;100671.81;4417196;32;19958;-56
2021/04/04 02:11:47;;;;;;;;;;;;;;;19.64;26.62;100670.75;4415764;32;20373;-56
2021/04/04 02:14:13;;;;;;;;;;;;;;;19.71;26.59;100665.59;4416519;32;20003;-56
2021/04/04 02:16:39;;;;;;;;;;;;;;;19.70;26.61;100658.53;4416173;32;19990;-57
2021/04/04 02:19:05;;;;;;;;;;;;;;;19.57;26.87;100660.03;4415066;32;19993;-57
2021/04/04 02:21:31;;;;;;;;;;;;;;;19.64;26.75;100670.75;4417005;32;19958;-56
2021/04/04 02:23:57;;;;;;;;;;;;;;;19.54;26.86;100658.19;4416694;32;19960;-57
2021/04/04 02:26:23;;;;;;;;;;;;;;;19.55;26.81;100665.25;4414226;32;20037;-56
2021/04/04 02:28:49;;;;;;;;;;;;;;;19.60;26.75;100663.63;4416226;32;19987;-56
2021/04/04 02:31:15;;;;;;;;;;;;;;;19.67;26.68;100662.00;4415793;32;19942;-56
2021/04/04 02:33:40;;;;;;;;;;;;;;;19.61;26.75;100667.13;4415991;32;19978;-54
2021/04/04 02:36:06;;;;;;;;;;;;;;;19.69;26.58;100664.66;4415669;32;19952;-54
2021/04/04 02:38:32;;;;;;;;;;;;;;;19.66;26.56;100669.03;4416343;32;20002;-56
2021/04/04 02:40:58;;;;;;;;;;;;;;;19.73;26.58;100663.87;4414577;32;19981;-55
2021/04/04 02:43:26;;;;;;;;;;;;;;;19.70;26.49;100669.09;4416045;32;19958;-57
2021/04/04 02:45:51;;;;;;;;;;;;;;;19.58;26.76;100667.09;4416741;32;19992;-56
2021/04/04 02:48:17;;;;;;;;;;;;;;;19.60;26.68;100674.19;4415441;32;20366;-55
2021/04/04 02:50:43;;;;;;;;;;;;;;;19.52;26.85;100670.50;4416135;32;19992;-55
2021/04/04 02:53:09;;;;;;;;;;;;;;;19.61;26.74;100675.06;4416429;32;19945;-56
2021/04/04 02:55:35;;;;;;;;;;;;;;;19.57;26.70;100682.06;4414077;32;20441;-56
2021/04/04 02:58:01;;;;;;;;;;;;;;;19.61;26.72;100681.25;4415651;32;19962;-57
2021/04/04 03:00:27;;;;;;;;;;;;;;;19.62;26.71;100677.75;4416173;32;19997;-56
2021/04/04 03:02:53;;;;;;;;;;;;;;;19.65;26.57;100677.81;4416477;32;19957;-57
2021/04/04 03:05:18;;;;;;;;;;;;;;;19.55;26.76;100673.19;4414681;32;19958;-57
2021/04/04 03:07:44;;;;;;;;;;;;;;;19.62;26.67;100676.84;4415752;32;20625;-56
2021/04/04 03:10:10;;;;;;;;;;;;;;;19.52;26.80;100676.69;4415916;32;19958;-56
2021/04/04 03:12:37;;;;;;;;;;;;;;;19.55;26.75;100669.69;4415879;32;20023;-56
2021/04/04 03:15:03;;;;;;;;;;;;;;;19.64;26.62;100670.75;4414793;32;19970;-52
2021/04/04 03:17:29;;;;;;;;;;;;;;;19.55;26.72;100672.31;4415910;32;20360;-57
2021/04/04 03:19:55;;;;;;;;;;;;;;;19.50;26.73;100670.44;4414592;32;20004;-57
2021/04/04 03:22:21;;;;;;;;;;;;;;;19.54;26.76;100679.34;4414073;32;20299;-58
2021/04/04 03:24:46;;;;;;;;;;;;;;;19.62;26.63;100683.03;4402105;32;20711;-57
2021/04/04 03:27:12;;;;;;;;;;;;;;;19.57;26.73;100679.41;4415399;32;19958;-56
2021/04/04 03:29:38;;;;;;;;;;;;;;;19.52;26.83;100678.41;4413061;32;19958;-56
2021/04/04 03:32:04;;;;;;;;;;;;;;;19.55;26.79;100673.19;4414850;32;19962;-56
2021/04/04 03:34:30;;;;;;;;;;;;;;;19.57;26.73;100676.78;4415917;32;20309;-55
2021/04/04 03:36:56;;;;;;;;;;;;;;;19.60;26.74;100675.94;4414779;32;19977;-56
2021/04/04 03:39:22;;;;;;;;;;;;;;;19.57;26.73;100678.50;4414995;32;19999;-54
2021/04/04 03:41:48;;;;;;;;;;;;;;;19.58;26.75;100680.28;4414984;32;19954;-57
2021/04/04 03:44:14;;;;;;;;;;;;;;;19.58;26.73;100673.28;4415513;32;20012;-55
2021/04/04 03:46:39;;;;;;;;;;;;;;;19.52;26.84;100683.69;4414796;32;19958;-56
2021/04/04 03:49:05;;;;;;;;;;;;;;;19.54;26.74;100681.97;4414813;32;19976;-57
2021/04/04 03:51:31;;;;;;;;;;;;;;;19.53;26.80;100685.47;4415390;32;20353;-57
2021/04/04 03:53:58;;;;;;;;;;;;;;;19.52;26.82;100675.78;4415688;32;20022;-56
2021/04/04 03:56:24;;;;;;;;;;;;;;;19.48;26.90;100679.22;4414383;32;19954;-56
2021/04/04 03:58:50;;;;;;;;;;;;;;;19.54;26.79;100678.47;4415432;32;19957;-56
2021/04/04 04:01:16;;;;;;;;;;;;;;;19.45;26.83;100673.88;4415137;32;19942;-55
2021/04/04 04:03:42;;;;;;;;;;;;;;;19.47;26.93;100677.44;4415461;32;19958;-57
2021/04/04 04:06:08;;;;;;;;;;;;;;;19.49;26.92;100671.31;4414744;32;20357;-55
2021/04/04 04:08:34;;;;;;;;;;;;;;;19.46;26.93;100670.38;4413489;32;19962;-56
2021/04/04 04:10:59;;;;;;;;;;;;;;;19.46;26.85;100665.97;4415506;32;19961;-57
2021/04/04 04:13:25;;;;;;;;;;;;;;;19.47;26.95;100662.47;4413439;32;19977;-55
2021/04/04 04:15:51;;;;;;;;;;;;;;;19.42;26.95;100668.50;4415592;32;19958;-56
2021/04/04 04:18:17;;;;;;;;;;;;;;;19.47;26.96;100666.88;4414879;32;19959;-53
2021/04/04 04:20:43;;;;;;;;;;;;;;;19.45;26.97;100673.88;4414644;32;19961;-55
2021/04/04 04:23:09;;;;;;;;;;;;;;;19.35;26.95;100667.50;4414909;32;20369;-57
2021/04/04 04:25:35;;;;;;;;;;;;;;;19.35;27.04;100668.41;4414479;32;19986;-56
2021/04/04 04:28:01;;;;;;;;;;;;;;;19.38;26.99;100663.19;4415556;32;20005;-57
2021/04/04 04:30:26;;;;;;;;;;;;;;;19.47;26.89;100672.16;4413893;32;20279;-56
2021/04/04 04:32:52;;;;;;;;;;;;;;;19.43;26.89;100676.47;4415160;32;19965;-57
2021/04/04 04:35:18;;;;;;;;;;;;;;;19.34;27.03;100671.91;4414411;32;19942;-55
2021/04/04 04:37:44;;;;;;;;;;;;;;;19.36;27.11;100675.47;4415069;32;19966;-57
2021/04/04 04:40:10;;;;;;;;;;;;;;;19.43;27.03;100678.22;4414612;32;19993;-56
2021/04/04 04:42:36;;;;;;;;;;;;;;;19.40;26.96;100675.53;4415653;32;19962;-57
2021/04/04 04:45:02;;;;;;;;;;;;;;;19.45;26.93;100674.75;4413999;32;19950;-56
2021/04/04 04:47:28;;;;;;;;;;;;;;;19.46;26.99;100676.53;4414426;32;19966;-54
2021/04/04 04:49:54;;;;;;;;;;;;;;;19.42;26.92;100671.16;4414271;32;19966;-57
2021/04/04 04:52:19;;;;;;;;;;;;;;;19.40;26.90;100675.53;4414714;32;20538;-56
2021/04/04 04:54:45;;;;;;;;;;;;;;;19.41;26.91;100672.00;4414638;32;19995;-56
2021/04/04 04:57:11;;;;;;;;;;;;;;;19.41;26.87;100665.00;4414480;32;19957;-57
2021/04/04 04:59:37;;;;;;;;;;;;;;;19.38;26.91;100668.47;4418462;32;19954;-57
2021/04/04 05:02:03;;;;;;;;;;;;;;;19.42;26.89;100665.88;4417112;32;19990;-56
2021/04/04 05:04:29;;;;;;;;;;;;;;;19.40;26.91;100670.25;4415943;32;20286;-57
2021/04/04 05:06:55;;;;;;;;;;;;;;;19.44;26.96;100664.16;4416771;32;19958;-57
2021/04/04 05:09:20;;;;;;;;;;;;;;;19.37;27.00;100661.41;4416904;32;19942;-58
2021/04/04 05:11:46;;;;;;;;;;;;;;;19.43;26.92;100662.38;4417793;32;19992;-57
2021/04/04 05:14:12;;;;;;;;;;;;;;;19.32;27.04;100663.06;4416455;32;19954;-55
2021/04/04 05:16:38;;;;;;;;;;;;;;;19.43;26.92;100659.72;4417330;32;20042;-53
2021/04/04 05:19:04;;;;;;;;;;;;;;;19.44;26.89;100651.84;4417164;32;20002;-57
2021/04/04 05:21:30;;;;;;;;;;;;;;;19.33;27.02;100654.28;4416810;32;19991;-56
2021/04/04 05:23:56;;;;;;;;;;;;;;;19.32;27.06;100655.13;4418047;32;19962;-56
2021/04/04 05:26:22;;;;;;;;;;;;;;;19.30;27.10;100654.19;4416705;32;19960;-57
2021/04/04 05:28:48;;;;;;;;;;;;;;;19.37;27.00;100650.84;4416640;32;19950;-56
2021/04/04 05:31:14;;;;;;;;;;;;;;;19.38;27.13;100662.28;4416589;32;19958;-57
2021/04/04 05:33:40;;;;;;;;;;;;;;;19.31;27.18;100661.25;4416881;32;19965;-56
2021/04/04 05:36:05;;;;;;;;;;;;;;;19.32;27.14;100663.06;4416745;32;20001;-56
2021/04/04 05:38:31;;;;;;;;;;;;;;;19.35;27.08;100663.13;4417155;32;19968;-55
2021/04/04 05:40:57;;;;;;;;;;;;;;;19.28;27.17;100665.59;4417033;32;19980;-55
2021/04/04 05:43:23;;;;;;;;;;;;;;;19.42;27.07;100668.50;4417465;32;20037;-57
2021/04/04 05:45:49;;;;;;;;;;;;;;;19.43;26.98;100676.47;4417016;32;19998;-57
2021/04/04 05:48:15;;;;;;;;;;;;;;;19.43;27.00;100672.94;4417026;32;19954;-56
2021/04/04 05:50:41;;;;;;;;;;;;;;;19.36;27.19;100672.81;4416769;32;19958;-57
2021/04/04 05:53:07;;;;;;;;;;;;;;;19.42;26.98;100673.78;4416639;32;19968;-55
2021/04/04 05:55:32;;;;;;;;;;;;;;;19.42;27.00;100679.97;4416072;32;20608;-55
2021/04/04 05:57:58;;;;;;;;;;;;;;;19.43;26.98;100680.84;4416220;32;20362;-57
2021/04/04 06:00:24;;;;;;;;;;;;;;;19.46;27.02;100683.59;4416826;32;19981;-57
2021/04/04 06:02:50;;;;;;;;;;;;;;;19.48;26.97;100684.50;4416816;32;19973;-57
2021/04/04 06:05:16;;;;;;;;;;;;;;;19.44;27.08;100687.91;4416843;32;20343;-56
2021/04/04 06:07:42;;;;;;;;;;;;;;;19.43;27.00;100687.03;4416601;32;20023;-55
2021/04/04 06:10:08;;;;;;;;;;;;;;;19.48;27.01;100692.44;4415456;32;19962;-55
2021/04/04 06:12:34;;;;;;;;;;;;;;;19.46;27.13;100686.22;4417587;32;19959;-53
2021/04/04 06:15:00;;;;;;;;;;;;;;;19.41;27.10;100687.87;4416612;32;19958;-57
2021/04/04 06:17:25;;;;;;;;;;;;;;;19.43;27.07;100686.12;4411702;32;19958;-57
2021/04/04 06:19:55;;;;;;;;;;;;;;;19.42;27.10;100682.62;4415755;32;20680;-55
2021/04/04 06:22:21;;;;;;;;;;;;;;;19.47;27.01;100680.97;4416945;32;19942;-56
2021/04/04 06:24:47;;;;;;;;;;;;;;;19.46;27.08;100686.22;4417240;32;20005;-57
2021/04/04 06:27:13;;;;;;;;;;;;;;;19.42;27.12;100685.28;4417011;32;19980;-57
2021/04/04 06:29:39;;;;;;;;;;;;;;;19.45;27.13;100695.00;4417636;32;20001;-57
2021/04/04 06:32:05;;;;;;;;;;;;;;;19.41;27.20;100687.87;4416023;32;19954;-55
2021/04/04 06:34:31;;;;;;;;;;;;;;;19.45;27.17;100689.72;4416328;32;20287;-57
2021/04/04 06:36:57;;;;;;;;;;;;;;;19.47;27.12;100690.66;4416930;32;19975;-57
2021/04/04 06:39:23;;;;;;;;;;;;;;;19.45;27.19;100692.38;4416349;32;20052;-55
2021/04/04 06:41:48;;;;;;;;;;;;;;;19.47;27.29;100688.00;4417077;32;19958;-54
2021/04/04 06:44:14;;;;;;;;;;;;;;;19.38;27.40;100686.03;4416738;32;19995;-57
2021/04/04 06:46:41;;;;;;;;;;;;;;;19.48;27.22;100685.38;4414195;32;19998;-57
2021/04/04 06:49:07;;;;;;;;;;;;;;;19.47;27.19;100685.38;4416332;32;20554;-56
2021/04/04 06:51:33;;;;;;;;;;;;;;;19.44;27.27;100687.91;4416036;32;19999;-54
2021/04/04 06:53:59;;;;;;;;;;;;;;;19.46;27.34;100680.94;4409949;32;19958;-56
2021/04/04 06:56:25;;;;;;;;;;;;;;;19.47;27.44;100680.09;4399235;32;20011;-57
2021/04/04 06:58:51;;;;;;;;;;;;;;;19.37;27.62;100682.53;4401128;32;20737;-56
2021/04/04 07:01:17;;;;;;;;;;;;;;;19.50;27.31;100677.50;4400878;32;19955;-56
2021/04/04 07:03:43;;;;;;;;;;;;;;;19.56;27.24;100685.53;4401059;32;19958;-57
2021/04/04 07:06:09;;;;;;;;;;;;;;;19.47;27.41;100688.00;4401060;32;19963;-56
2021/04/04 07:08:35;;;;;;;;;;;;;;;19.42;27.49;100681.72;4400434;32;19983;-54
2021/04/04 07:11:01;;;;;;;;;;;;;;;19.29;27.68;100684.09;4401696;32;19998;-55
2021/04/04 07:13:27;;;;;;;;;;;;;;;19.24;27.81;100670.78;4401195;32;19946;-53
2021/04/04 07:15:54;;;;;;;;;;;;;;;19.25;27.84;100676.97;4400651;32;20308;-57
2021/04/04 07:18:20;;;;;;;;;;;;;;;19.29;27.82;100683.22;4400294;32;19980;-57
2021/04/04 07:20:46;;;;;;;;;;;;;;;19.30;27.81;100677.97;4401047;32;20051;-58
2021/04/04 07:23:12;;;;;;;;;;;;;;;19.22;27.86;100682.19;4399613;32;19973;-56
2021/04/04 07:25:38;;;;;;;;;;;;;;;19.24;27.94;100681.34;4400999;32;20355;-55
2021/04/04 07:28:04;;;;;;;;;;;;;;;19.08;28.21;100677.50;4400877;32;19950;-55
2021/04/04 07:30:30;;;;;;;;;;;;;;;19.24;27.94;100675.19;4400863;32;19965;-55
2021/04/04 07:32:56;;;;;;;;;;;;;;;19.30;27.89;100675.31;4400688;32;19962;-57
2021/04/04 07:35:22;;;;;;;;;;;;;;;19.45;27.68;100663.31;4398935;32;20006;-57
2021/04/04 07:37:48;;;;;;;;;;;;;;;19.30;27.95;100667.41;4399245;32;20264;-55
2021/04/04 07:40:14;;;;;;;;;;;;;;;19.26;28.22;100667.28;4399737;32;19971;-58
2021/04/04 07:42:40;;;;;;;;;;;;;;;19.24;28.24;100662.00;4400297;32;19990;-57
2021/04/04 07:45:06;;;;;;;;;;;;;;;19.44;27.84;100661.50;4399299;32;19996;-58
2021/04/04 07:47:32;;;;;;;;;;;;;;;19.57;27.73;100663.56;4399959;32;19943;-57
2021/04/04 07:49:58;;;;;;;;;;;;;;;19.57;27.86;100663.56;4400235;32;19950;-54
2021/04/04 07:52:24;;;;;;;;;;;;;;;19.52;27.94;100665.22;4395206;32;19959;-57
2021/04/04 07:54:50;;;;;;;;;;;;;;;19.37;28.47;100664.03;4399965;32;19992;-56
2021/04/04 07:57:16;;;;;;;;;;;;;;;19.45;28.50;100668.59;4399011;32;20034;-57
2021/04/04 07:59:42;;;;;;;;;;;;;;;19.44;28.53;100662.41;4399278;32;19958;-55
2021/04/04 08:02:08;;;;;;;;;;;;;;;19.33;28.98;100670.13;4397963;32;20617;-57
2021/04/04 08:04:34;;;;;;;;;;;;;;;19.18;29.42;100662.75;4415273;32;19991;-57
2021/04/04 08:07:00;;;;;;;;;;;;;;;18.95;29.91;100662.19;4414120;32;19966;-57
2021/04/04 08:09:26;;;;;;;;;;;;;;;18.89;30.17;100667.34;4413600;32;19971;-58
2021/04/04 08:11:52;;;;;;;;;;;;;;;18.85;30.33;100662.84;4414450;32;19953;-57
2021/04/04 08:14:19;;;;;;;;;;;;;;;18.93;30.50;100669.19;4413730;32;19966;-54
2021/04/04 08:16:45;;;;;;;;;;;;;;;18.93;30.57;100662.16;4415006;32;20006;-57
2021/04/04 08:19:11;;;;;;;;;;;;;;;19.00;30.59;100659.69;4414020;32;19961;-59
2021/04/04 08:21:36;;;;;;;;;;;;;;;19.13;29.64;100656.47;4413671;32;20034;-58
2021/04/04 08:24:03;;;;;;;;;;;;;;;19.51;28.10;100653.78;4406640;32;20405;-57
2021/04/04 08:26:28;;;;;;;;;;;;;;;19.53;28.63;100651.13;4414958;32;19993;-56
2021/04/04 08:28:56;;;;;;;;;;;;;;;19.57;28.99;100658.28;4414358;32;20353;-58
2021/04/04 08:31:21;;;;;;;;;;;;;;;19.42;28.08;100648.28;4414437;32;19993;-55
2021/04/04 08:33:47;;;;;;;;;;;;;;;19.06;28.64;100655.44;4420786;32;19961;-55
2021/04/04 08:36:13;;;;;;;;;;;;;;;19.38;28.65;100652.62;4419306;32;20351;-58
2021/04/04 08:38:39;;;;;;;;;;;;;;;19.51;27.61;100661.69;4420540;32;19946;-54
2021/04/04 08:41:05;;;;;;;;;;;;;;;19.05;28.46;100660.69;4420103;32;20025;-55
2021/04/04 08:43:31;;;;;;;;;;;;;;;19.35;28.42;100649.00;4419679;32;19976;-56
2021/04/04 08:45:57;;;;;;;;;;;;;;;19.50;28.40;100656.38;4419651;32;19962;-55
2021/04/04 08:48:23;;;;;;;;;;;;;;;19.54;27.94;100650.28;4419862;32;20436;-55
2021/04/04 08:50:49;;;;;;;;;;;;;;;18.72;28.59;100648.47;4419936;32;20005;-56
2021/04/04 08:53:15;;;;;;;;;;;;;;;19.08;28.63;100648.47;4419703;32;19982;-56
2021/04/04 08:55:40;;;;;;;;;;;;;;;19.24;28.71;100648.78;4418594;32;20022;-56
2021/04/04 08:58:06;;;;;;;;;;;;;;;19.28;28.77;100645.34;4418553;32;19984;-53
2021/04/04 09:00:32;;;;;;;;;;;;;;;19.29;28.87;100643.63;4419908;32;19962;-58
2021/04/04 09:02:58;;;;;;;;;;;;;;;19.54;26.90;100645.00;4420561;32;19988;-56
2021/04/04 09:05:27;;;;;;;;;;;;;;;19.28;28.17;100642.72;4420605;32;19999;-56
2021/04/04 09:07:53;;;;;;;;;;;;;;;19.43;28.53;100644.78;4420197;32;19965;-55
2021/04/04 09:10:19;;;;;;;;;;;;;;;19.46;28.73;100638.69;4419420;32;19977;-57
2021/04/04 09:12:45;;;;;;;;;;;;;;;19.32;29.07;100636.66;4420033;32;20008;-52
2021/04/04 09:15:11;;;;;;;;;;;;;;;19.23;29.29;100641.75;4419576;32;19985;-53
2021/04/04 09:17:37;;;;;;;;;;;;;;;19.21;29.49;100643.47;4419783;32;19999;-57
2021/04/04 09:20:03;;;;;;;;;;;;;;;19.24;29.52;100639.09;4420802;32;19964;-57
2021/04/04 09:22:29;;;;;;;;;;;;;;;19.29;29.51;100636.56;4418899;32;20343;-55
2021/04/04 09:24:55;;;;;;;;;;;;;;;19.53;29.37;100645.84;4419637;32;19999;-56
2021/04/04 09:27:21;;;;;;;;;;;;;;;19.57;29.36;100641.53;4405663;32;19958;-57
2021/04/04 09:29:47;;;;;;;;;;;;;;;19.59;29.51;100642.44;4408705;32;19951;-57
2021/04/04 09:32:13;;;;;;;;;;;;;;;19.57;29.61;100642.44;4404347;32;19950;-56
2021/04/04 09:34:39;;;;;;;;;;;;;;;19.63;29.57;100641.63;4407858;32;20330;-57
2021/04/04 09:37:05;;;;;;;;;;;;;;;19.66;29.62;100639.94;4416050;32;20049;-52
2021/04/04 09:39:31;;;;;;;;;;;;;;;19.82;29.50;100635.00;4419858;32;19959;-56
2021/04/04 09:41:57;;;;;;;;;;;;;;;20.10;29.16;100630.22;4418180;32;19958;-57
2021/04/04 09:44:23;;;;;;;;;;;;;;;20.12;27.52;100625.84;4417836;32;20501;-56
2021/04/04 09:46:49;;;;;;;;;;;;;;;19.86;28.19;100627.97;4416841;32;19951;-56
2021/04/04 09:49:14;;;;;;;;;;;;;;;19.98;28.70;100624.72;4418047;32;20001;-54
2021/04/04 09:51:40;;;;;;;;;;;;;;;19.94;28.84;100621.13;4417799;32;20289;-55
2021/04/04 09:54:06;;;;;;;;;;;;;;;19.87;29.13;100630.66;4417171;32;20026;-54
2021/04/04 09:56:32;;;;;;;;;;;;;;;19.78;29.48;100612.00;4416033;32;19962;-56
2021/04/04 09:58:58;;;;;;;;;;;;;;;19.88;29.57;100615.69;4414706;32;20148;-54
2021/04/04 10:01:24;;;;;;;;;;;;;;;19.96;29.70;100613.25;4416594;32;19993;-56
2021/04/04 10:03:50;;;;;;;;;;;;;;;20.04;29.77;100606.31;4417694;32;19966;-56
2021/04/04 10:06:16;;;;;;;;;;;;;;;20.24;29.66;100611.06;4417142;32;19972;-56
2021/04/04 10:08:42;;;;;;;;;;;;;;;20.41;29.58;100600.75;4415114;32;20003;-54
2021/04/04 10:11:08;;;;;;;;;;;;;;;20.45;29.51;100606.13;4415430;32;19970;-56
2021/04/04 10:13:37;;;;;;;;;;;;;;;20.57;29.45;100612.47;4416820;32;19958;-57
2021/04/04 10:16:03;;;;;;;;;;;;;;;20.62;29.40;100611.69;4416099;32;19959;-57
2021/04/04 10:18:29;;;;;;;;;;;;;;;20.72;29.26;100603.84;4415122;32;19958;-55
2021/04/04 10:20:55;;;;;;;;;;;;;;;20.74;29.35;100603.00;4416770;32;20385;-54
2021/04/04 10:23:21;;;;;;;;;;;;;;;20.90;28.97;100603.25;4416535;32;20022;-56
2021/04/04 10:25:47;;;;;;;;;;;;;;;21.02;28.82;100594.59;4417119;32;20404;-56
2021/04/04 10:28:13;;;;;;;;;;;;;;;21.11;28.73;100596.47;4416002;32;20002;-53
2021/04/04 10:30:40;;;;;;;;;;;;;;;21.18;28.64;100606.28;4417223;32;19962;-53
2021/04/04 10:33:06;;;;;;;;;;;;;;;21.26;28.57;100599.31;4415597;32;19990;-57
2021/04/04 10:35:32;;;;;;;;;;;;;;;21.32;28.48;100599.41;4416822;32;20032;-56
2021/04/04 10:37:58;;;;;;;;;;;;;;;21.40;28.39;100593.28;4415720;32;19949;-56
2021/04/04 10:40:23;;;;;;;;;;;;;;;21.37;28.46;100591.50;4415156;32;19972;-54
2021/04/04 10:42:49;;;;;;;;;;;;;;;21.46;28.33;100588.06;4414707;32;19979;-54
2021/04/04 10:45:15;;;;;;;;;;;;;;;21.49;28.31;100585.44;4406979;32;20019;-56
2021/04/04 10:47:41;;;;;;;;;;;;;;;21.51;28.34;100578.41;4416371;32;20013;-55
2021/04/04 10:50:07;;;;;;;;;;;;;;;21.53;28.30;100589.91;4416286;32;19997;-57
2021/04/04 10:52:33;;;;;;;;;;;;;;;21.53;28.34;100581.94;4416510;32;20264;-54
2021/04/04 10:54:59;;;;;;;;;;;;;;;21.57;28.29;100582.87;4415443;32;20682;-57
2021/04/04 10:57:27;;;;;;;;;;;;;;;21.62;28.21;100587.34;4414821;32;20307;-56
2021/04/04 10:59:52;;;;;;;;;;;;;;;21.66;28.21;100583.00;4409619;32;19976;-51
2021/04/04 11:02:18;;;;;;;;;;;;;;;21.74;27.98;100576.03;4401234;32;19971;-51
2021/04/04 11:04:44;;;;;;;;;;;;;;;21.73;28.09;100574.25;4401670;32;19993;-52
2021/04/04 11:07:10;;;;;;;;;;;;;;;21.76;28.13;100568.97;4399805;32;19963;-50
2021/04/04 11:09:36;;;;;;;;;;;;;;;21.79;28.06;100567.22;4401134;32;19962;-52
2021/04/04 11:12:02;;;;;;;;;;;;;;;21.80;28.13;100567.25;4401054;32;20000;-54
2021/04/04 11:14:28;;;;;;;;;;;;;;;21.78;28.13;100561.03;4400678;32;20391;-54
2021/04/04 11:16:54;;;;;;;;;;;;;;;21.78;28.21;100561.03;4415938;32;19958;-53
2021/04/04 11:19:20;;;;;;;;;;;;;;;21.80;28.23;100554.00;4416696;32;19982;-55
2021/04/04 11:21:46;;;;;;;;;;;;;;;21.85;28.28;100546.06;4411306;32;20327;-53
2021/04/04 11:24:12;;;;;;;;;;;;;;;21.78;28.42;100549.56;4387851;32;19958;-55
2021/04/04 11:26:38;;;;;;;;;;;;;;;21.76;28.54;100553.06;4415576;32;19985;-54
2021/04/04 11:29:03;;;;;;;;;;;;;;;21.77;28.59;100543.34;4415231;32;19979;-55
2021/04/04 11:31:29;;;;;;;;;;;;;;;21.76;28.74;100538.91;4415729;32;20073;-52
2021/04/04 11:33:55;;;;;;;;;;;;;;;21.73;28.85;100544.19;4416875;32;20039;-54
2021/04/04 11:36:21;;;;;;;;;;;;;;;21.75;28.93;100550.41;4415700;32;19985;-53
2021/04/04 11:38:47;;;;;;;;;;;;;;;21.86;28.87;100540.78;4411198;32;19965;-55
2021/04/04 11:41:13;;;;;;;;;;;;;;;21.88;28.89;100546.97;4413150;32;19954;-55
2021/04/04 11:43:39;;;;;;;;;;;;;;;21.99;28.78;100548.84;4412848;32;19976;-55
2021/04/04 11:46:05;;;;;;;;;;;;;;;22.10;28.64;100547.16;4412196;32;20444;-56
2021/04/04 11:48:31;;;;;;;;;;;;;;;22.21;28.54;100544.59;4414919;32;19982;-53
2021/04/04 11:50:57;;;;;;;;;;;;;;;22.24;28.51;100541.06;4415218;32;20274;-51
2021/04/04 11:53:23;;;;;;;;;;;;;;;22.36;28.33;100538.50;4413809;32;20053;-55
2021/04/04 11:55:49;;;;;;;;;;;;;;;22.38;28.32;100536.75;4415925;32;19954;-56
2021/04/04 11:58:15;;;;;;;;;;;;;;;22.41;28.29;100536.78;4413079;32;20452;-51
2021/04/04 12:00:41;;;;;;;;;;;;;;;22.48;28.33;100526.19;4413631;32;19950;-53
2021/04/04 12:03:07;;;;;;;;;;;;;;;22.53;28.23;100522.72;4414419;32;19959;-51
2021/04/04 12:05:32;;;;;;;;;;;;;;;22.56;28.23;100524.53;4415431;32;19958;-49
2021/04/04 12:07:58;;;;;;;;;;;;;;;22.54;28.30;100521.84;4413231;32;19985;-55
2021/04/04 12:10:24;;;;;;;;;;;;;;;22.59;28.24;100519.22;4401970;32;19993;-52
2021/04/04 12:12:50;;;;;;;;;;;;;;;22.63;28.23;100517.47;4414496;32;19957;-55
2021/04/04 12:15:16;;;;;;;;;;;;;;;22.62;28.23;100518.34;4412950;32;19943;-51
2021/04/04 12:17:42;;;;;;;;;;;;;;;22.65;28.21;100508.63;4415235;32;20032;-49
2021/04/04 12:20:08;;;;;;;;;;;;;;;22.69;28.21;100514.84;4415963;32;19965;-52
2021/04/04 12:22:34;;;;;;;;;;;;;;;22.72;28.09;100513.09;4415480;32;19969;-56
2021/04/04 12:25:00;;;;;;;;;;;;;;;22.77;28.00;100509.56;4415612;32;20452;-53
2021/04/04 12:27:26;;;;;;;;;;;;;;;22.72;28.14;100494.50;4413647;32;20331;-53
2021/04/04 12:29:52;;;;;;;;;;;;;;;22.73;28.05;100495.41;4415742;32;19993;-55